Jersey, VA

3:52 PM EDT on June 03, 2015 (GMT -0400)
Jersey | | Change Station
CLOSE
Current Station
Personal Weather Station
Location: King George, VA
Elevation: 69 ft
Nearby Weather Stations

Elev 69 ft 38.21 °N, 77.15 °W | Updated 2 minutes ago

Mostly Cloudy
Mostly Cloudy
59.1 °F
Feels Like 59.1 °F
N
2.0
Wind Variable Wind from NNW
Gusts 7.0 mph

Today
High -- | Low -- °F
--% Chance of Precip.
Yesterday
High -- | Low -- °F
Precip. -- in
5:46 AM 8:27 PM
Full, 98% visible
Pressure 30.15 in
Visibility 2.5 miles
Clouds Mostly Cloudy 900 ft
Overcast 1600 ft
Dew Point 58 °F
Humidity 96%
Rainfall 0.02 in
Snow Depth Not available.
UV 3 out of 12
Pollen .50 out of 12
Air Quality Not available.
Flu Activity Sporadic
METAR KEZF 031935Z AUTO 02005KT 2 1/2SM +RA BKN009 OVC016 16/16 A3015 RMK AO2 P0004 T01600160

More Conditions Fewer Conditions

Pressure 30.15 in
Visibility 2.5 miles
Clouds Mostly Cloudy 900 ft
Overcast 1600 ft
Dew Point 58 °F
Humidity 96%
Rainfall 0.02 in
Snow Depth Not available.
UV 3 out of 12
Pollen .50 out of 12
Air Quality Not available.
Flu Activity Sporadic
METAR KEZF 031935Z AUTO 02005KT 2 1/2SM +RA BKN009 OVC016 16/16 A3015 RMK AO2 P0004 T01600160

More Conditions Fewer Conditions

10-Day Weather Forecast

×

Almanac

Astronomy

Jun. 03, 2015 Rise Set
Actual Time
Civil Twilight
Nautical Twilight
Astronomical Twilight
Moon
Length of Visible Light
Length of Day
Tomorrow will be .
, % of the Moon is Illuminated

Today's Extremes

State Highs State Lows

Community

WunderPhotos

Upload Photos

1,826,274 photos uploaded!

WunderBlogs® & News

Nearby

Air Quality

  Air Quality AQ Index Pollutant
Not available.

Snow Depth

Station Depth Elevation

Earthquake Activity

City Distance Mag. Time & Date
Minimum magnitude displayed is 2.5.

Coastal Water Temperatures

Place Temperature

Stations

Nearby Weather Stations

Station Location Temp. Windchill Dew Point Humidity Wind Precip. Elev Updated Type